Articles

Rainfall Radar

Share
 
 
Share

Trim Flying Club goes to the Aran Islands

Learn to fly at Trim Flying Club

Rainfall Radar Now

Atlantic Charts Pressure - Today

Atlantic Charts Rainfall - Today

 
 

Atlantic Charts Pressure - Tomorrow

Sunrise Sunset

Click for Dublin, Ireland Forecast

Aviation WX Dublin EIDW

[source: ADDS]
METAR
EIDW 202330Z 03016KT 9999 FEW010 BKN120 10/07 Q1007 NOSIG =
TAF
TAF EIDW 202300Z 2100/2124 02017KT 9999 SCT020 TEMPO 2100/2106 -RA BKN010 BECMG 2106/2108 06013KT PROB30 TEMPO 2117/2124 5000 -RA BKN010 =